Timeline UpdatesTrip UpdatesNews PostsPvt PostsTravel TipsAdmin PostsConv PostsFollowed PostsChat RequestsBlog PostsPNR Posts

Disclaimer
Search
 
 
Thu Apr 24, 2014 05:46:19 ISTHomeTrainsΣChainsAtlasPNRForumGalleryNewsFAQTripsMembersLoginFeedback
No Recent News for this Train
Other Trains in the News **new
Latest...
Train leaving Saharsa on 31st January and 1st February 2014 will be diverted to run via Siwan-Thawe-Kaptanganj- Gorakhpur; #967235
Fri Jan 17, 2014 (07:42PM)
⇐ Return Journey: Train# 15210

15209/Jan Seva Express (UnReserved)

Dec 27 2013 (6:25PM)
Change Departure Station:
Change Arrival Station:
Post a Train Travel TipPost a Train Travel Tip **new
Post a Comment/Question/Picture/VideoPost a Comment/Question/Picture/Video
Inaugural Run
Sat Dec 12, 2009
Pantry/Catering
✕ NO Pantry Car
✕ NO Catering
RSA - Rake Sharing
RSA with 15275/76...shc bju express
Rake/Coach Composition
LOCO-SLR-GEN-GEN-GEN-GEN-GEN-GEN-GEN-GEN-GEN-GEN-GEN-GEN-GEN-GEN-GEN-GEN-GEN-GEN-GEN-GEN-SLR
Loco
SHC-MB: GD WDM-3A MB-ASR: GZB WAP5/WAP7
News    PNR    Forum    Time-Table    Availability    Fare Chart    Map    Arr/Dep History    Trips    Gallery    ΣChains    X/O    Timeline    
Travel Time: 28h 47m    38 halts    Distance: 1322 km    Avg Speed: 45 km/hr
Type: Mail/Express
Zone: ECR/East Central
Departs @ 08:45 (Avg 5m late)
Platform# 1
SMTWTFS
Saharsa Junction/SHC 
Arrives @ 13:32 +1 night (Avg 48m late)
Platform# 1
SMTWTFS
Sirhind Junction/SIR 

38 halts. 223 intermediate Stations between Saharsa Junction and Sirhind Junction

Show ALL intermediate Stations  Show Old Time-Table

#CodeStation NameX/OArrivesAvgDepartsAvgHaltPFDay#KmSpeedElevZoneAddress
1SHC»Saharsa Junction (3)»  -08:45+5110.07346mECRSaharsa, Bihar
2SBVSimri Bakhtiyarpur (1)  08:59+1209:01+152m1117.14942mECRBakhtiarpur, Bihar
3KFAKoparia (1)  09:09+1509:11+162m1123.62242mECRBihar, Bihar
4MNEMansi Junction (3)  10:03+510:05+112m3142.55343mECRMansi, Bihar
5KGGKhagaria Junction (3)X  10:15+1410:17+162m1151.35843mECRKhagaria, Bihar
6LKNLakhminia  10:40+1410:42+152m--173.48245mECRBegusarai, Bihar
7BGSBegu Sarai (2)X  10:55+2010:57+202m1191.229 ECRBegusarai, Bihar
8BJUBarauni Junction (9)X  11:25+2211:35+2410m--1104.652 ECRBegusarai, Bihar
9BCABachwara Junction  11:54+3811:56+412m--1121.05446mECRBegusarai, Bihar
10MOGMohiuddinnagarX  12:19+4412:21+472m--1141.64152mECRSamastipur, Bihar
11SPPShahpur Patoree  12:40+4612:42+502m--1154.56850mECRSamastipur, Bihar
12MNOMehnar RoadX  12:49+5412:51+562m--1162.44054mECRMehnar Road, Bihar
13DESDesariO  13:06+5613:08+562m--1172.54749mECRVaishali, Bihar
14AYRNAkshaywat Rai Nagar  13:20+5713:22+572m--1181.81752mECRVaishali, Bihar
15HJPHajipur Junction (3)X  14:00+4514:05+515m--1192.33355mECR06224-272230, Bihar
16SEESonpur Junction (4)X  14:15+5114:20+505m31197.84656mECRSaran, Bihar
17DGADighwara (2)X  14:50+4414:52+452m--1221.03260mECR06158-281240, Bihar
18CPRChhapra Junction (6)  15:50+4316:00+4310m--1251.98058mNERDistt: Saran, Bihar
19EKMAEkma (3)X  16:21+5016:23+502m--1279.85864mNERSaran, Bihar
20DDADuraundha Junction (3)  16:39+5016:41+502m--1295.35664mNERDistt: Siwan, Bihar
21SVSiwan Junction (4)  17:00+5017:05+505m--1313.18570mNERSiwan, Bihar
22MWMairwa (2)X  17:20+5517:22+552m--1334.44373mNERMairwa, Bihar
23BTTBhatni Junction (5)  18:00+4418:05+445m--1361.83573mNERDeoria, Uttar Pradesh
24DEOSDeoria Sadar (3)X  18:41+3118:46+315m--1382.64379mNERDeoria- 274001, Uttar Pradesh
25GKPGorakhpur Junction (10)X  19:55+4120:10+4415m--1431.76984mNERGorakhpur 273001, Uttar Pradesh
26BSTBasti (4)  21:05+1:0021:07+1:032m11495.16090mNERBasti 272001, Uttar Pradesh
27GDGonda Junction (3)X  22:35+5022:45+4910m11583.662110mNERGonda 271001, Uttar Pradesh
28BUWBurhwal Junction (3)  23:45+4723:50+485m31645.843119mNERBarabanki, Uttar Pradesh
29SCCSitapur Cantt. (2)X  02:05+2102:15+2510m--2743.345141mNRSitapur, Uttar Pradesh
30MINJMaikalGanj03:11+3103:12+331m--2784.958149mNRNational Highway 24, Uttar Pradesh
31BEBareilly Junction (4)XO  05:15+4105:25+3910m12903.974174mNRBareilly, Uttar Pradesh
32RMURampur Junction (3)X  06:16+5006:18+512m--2966.939190mNRRampur, Uttar Pradesh
33MBMoradabad Junction (7)X07:00+4407:30+3730m32994.272201mNRMoradabad, Uttar Pradesh
34NBDNajibabad Junction (3)  08:52+4408:55+453m221093.144269mNRNajibabad, Uttar Pradesh
35LRJLaksar Junction (4)XO  09:52+2809:54+302m--21135.044238mNRLaksar, Uttarakhand
36SRESaharanpur Junction (6)  11:05+2711:10+325m521187.567276mNRSaharanpur, Uttar Pradesh
37JUDYamunanagar-Jagadhri (3)X  11:37+4111:38+421m321217.759275mNRYamunanagar, Haryana
38UMBAmbala Cantt. Junction (7)X  12:30+4112:40+4210m221268.767278mNRAmbala 133001, Haryana
39RPJRajpura Junction (3)X  13:05+5013:07+502m121296.860272mNRNH-1, Punjab
40SIR•Sirhind Junction (3)•O  13:32+4813:34+522m121321.636271mNRSirhind, Punjab
41DDLDhandari Kalan (3)X  15:04+2215:06+262m121374.850254mNRDhandari Kalan, Punjab
42LDHLudhiana Junction (7)X  15:15+3415:25+4110m321382.334246mNRLudhiana 141001, Punjab
43PHRPhillaur Junction (3)  15:48+3615:50+362m221395.475246mNRPhillaur, Punjab
44PGWPhagwara Junction (3)  16:08+3616:10+362m221418.063245mNRPhagwara, Punjab
45JUCJalandhar City Junction (5)  16:30+3816:35+395m121439.149239mNRJalandhar 144001, Punjab
46BEASBeas Junction (2)X  17:19+2817:21+292m121475.248238mNRBeas, Punjab
47ASRAmritsar Junction (5)  18:15+20-521518.2-233mNRAmritsar 143002, Punjab
Scroll to Top
Scroll to Bottom